Time;durP1;ratioP1;P1;durP2;ratioP2;P2;SDS_P1;SDS_P2;PMS_P1;PMS_P2;Temp;Humidity;BMP_temperature;BMP_pressure;BME280_temperature;BME280_humidity;BME280_pressure;Samples;Min_cycle;Max_cycle;Signal;HPM_P1;HPM_P2
2023/09/02 00:01:37;;;;;;;4.25;2.60;;;13.50;99.90;;;;;;5035809;28;20186;-84
2023/09/02 00:04:05;;;;;;;4.45;2.78;;;13.50;99.90;;;;;;5038954;28;20614;-84
2023/09/02 00:06:32;;;;;;;5.38;2.55;;;13.40;99.90;;;;;;5035688;28;20198;-84
2023/09/02 00:09:00;;;;;;;5.13;2.47;;;13.40;99.90;;;;;;5031107;28;20190;-84
2023/09/02 00:11:27;;;;;;;4.28;2.42;;;13.40;99.90;;;;;;5038345;28;20190;-84
2023/09/02 00:13:55;;;;;;;4.53;2.38;;;13.40;99.90;;;;;;5036495;28;20244;-84
2023/09/02 00:16:24;;;;;;;3.67;2.22;;;13.50;99.90;;;;;;5036402;28;20543;-85
2023/09/02 00:18:51;;;;;;;3.40;2.30;;;13.50;99.90;;;;;;5031981;28;20190;-85
2023/09/02 00:21:19;;;;;;;4.25;2.15;;;13.40;99.90;;;;;;5033586;28;20201;-85
2023/09/02 00:23:46;;;;;;;2.92;2.30;;;13.40;99.90;;;;;;5032857;28;20554;-85
2023/09/02 00:26:15;;;;;;;5.38;2.25;;;13.50;99.90;;;;;;5027098;28;20212;-86
2023/09/02 00:28:46;;;;;;;3.55;2.08;;;13.50;99.90;;;;;;5031450;28;20188;-85
2023/09/02 00:31:14;;;;;;;2.90;2.15;;;13.50;99.90;;;;;;5028152;28;20189;-85
2023/09/02 00:33:41;;;;;;;5.88;2.15;;;13.60;99.90;;;;;;5027052;28;20178;-85
2023/09/02 00:36:09;;;;;;;5.72;2.28;;;13.50;99.90;;;;;;5027395;28;20277;-86
2023/09/02 00:38:36;;;;;;;4.20;2.03;;;13.60;99.90;;;;;;5037429;28;20194;-84
2023/09/02 00:41:07;;;;;;;3.03;2.17;;;13.60;99.90;;;;;;5033040;28;20212;-86
2023/09/02 00:43:35;;;;;;;6.07;2.45;;;13.60;99.90;;;;;;5033237;28;20213;-86
2023/09/02 00:46:04;;;;;;;4.45;2.20;;;13.60;99.90;;;;;;5038124;28;20194;-85
2023/09/02 00:48:33;;;;;;;4.18;2.13;;;13.50;99.90;;;;;;5035129;28;20209;-84
2023/09/02 00:51:01;;;;;;;4.85;2.30;;;13.40;99.90;;;;;;5033218;28;20194;-85
2023/09/02 00:53:28;;;;;;;6.32;2.15;;;13.40;99.90;;;;;;5032062;28;20197;-85
2023/09/02 00:55:56;;;;;;;4.30;2.35;;;13.40;99.90;;;;;;5033117;28;20201;-84
2023/09/02 00:58:23;;;;;;;3.30;1.98;;;13.50;99.90;;;;;;5038266;28;20549;-84
2023/09/02 01:00:51;;;;;;;4.93;2.20;;;13.50;99.90;;;;;;5034938;28;20216;-85
2023/09/02 01:03:18;;;;;;;3.75;2.20;;;13.50;99.90;;;;;;5039489;27;20202;-85
2023/09/02 01:05:47;;;;;;;4.20;2.00;;;13.50;99.90;;;;;;5037155;28;20293;-84
2023/09/02 01:08:19;;;;;;;4.45;2.30;;;13.50;99.90;;;;;;5036040;28;20199;-85
2023/09/02 01:10:47;;;;;;;3.35;2.17;;;13.60;99.90;;;;;;5040756;28;20192;-84
2023/09/02 01:13:15;;;;;;;3.38;2.25;;;13.60;99.90;;;;;;5038009;28;20312;-85
2023/09/02 01:15:43;;;;;;;3.85;2.00;;;13.60;99.90;;;;;;5037380;28;20280;-85
2023/09/02 01:18:11;;;;;;;3.95;1.83;;;13.50;99.90;;;;;;5015729;28;20265;-84
2023/09/02 01:21:10;;;;;;;4.85;2.28;;;13.40;99.90;;;;;;5036633;27;20189;-85
2023/09/02 01:24:04;;;;;;;3.03;1.92;;;13.50;99.90;;;;;;5038079;28;20201;-86
2023/09/02 01:27:02;;;;;;;2.40;1.77;;;13.50;99.90;;;;;;5036347;28;20206;-85
2023/09/02 01:29:34;;;;;;;2.25;1.95;;;13.50;99.90;;;;;;5035783;28;20187;-85
2023/09/02 01:32:06;;;;;;;5.43;2.00;;;13.40;99.90;;;;;;5033850;28;20177;-85
2023/09/02 01:34:36;;;;;;;3.42;1.92;;;13.50;99.90;;;;;;5038424;28;20671;-85
2023/09/02 01:37:07;;;;;;;5.43;2.13;;;13.40;99.90;;;;;;5037355;28;20197;-85
2023/09/02 01:39:37;;;;;;;3.10;2.13;;;13.40;99.90;;;;;;5031483;28;20715;-85
2023/09/02 01:42:08;;;;;;;4.30;1.92;;;13.40;99.90;;;;;;5035576;28;20562;-85
2023/09/02 01:44:37;;;;;;;3.85;2.38;;;13.30;99.90;;;;;;5038865;28;20550;-85
2023/09/02 01:47:05;;;;;;;3.88;2.10;;;13.30;99.90;;;;;;5036097;28;20184;-86
2023/09/02 01:49:34;;;;;;;3.88;2.03;;;13.30;99.90;;;;;;5030830;28;20197;-85
2023/09/02 01:52:03;;;;;;;3.70;2.45;;;13.40;99.90;;;;;;5021586;28;20668;-85
2023/09/02 01:54:31;;;;;;;4.28;2.55;;;13.30;99.90;;;;;;5030209;28;20574;-85
2023/09/02 01:56:59;;;;;;;3.20;2.13;;;13.20;99.90;;;;;;5037727;28;20667;-85
2023/09/02 01:59:27;;;;;;;3.25;2.30;;;13.30;99.90;;;;;;5040648;27;20565;-85
2023/09/02 02:01:54;;;;;;;4.28;2.33;;;13.30;99.90;;;;;;5034758;28;20185;-86
2023/09/02 02:04:33;;;;;;;4.70;2.50;;;13.30;99.90;;;;;;5038021;28;20197;-84
2023/09/02 02:07:04;;;;;;;6.10;2.30;;;13.30;99.90;;;;;;5028267;27;20971;-85
2023/09/02 02:09:46;;;;;;;4.03;2.58;;;13.30;99.90;;;;;;5032231;28;20648;-85
2023/09/02 02:12:14;;;;;;;3.38;2.28;;;13.30;99.90;;;;;;5038764;28;20625;-86
2023/09/02 02:14:41;;;;;;;6.03;2.03;;;13.30;99.90;;;;;;5035431;28;20193;-85
2023/09/02 02:17:09;;;;;;;2.92;2.05;;;13.30;99.90;;;;;;5035692;28;20280;-85
2023/09/02 02:19:37;;;;;;;4.40;2.20;;;13.40;99.90;;;;;;5035729;28;20589;-86
2023/09/02 02:22:05;;;;;;;4.22;1.90;;;13.30;99.90;;;;;;5041854;28;20209;-85
2023/09/02 02:24:33;;;;;;;5.43;2.20;;;13.20;99.90;;;;;;5031752;28;20190;-86
2023/09/02 02:27:01;;;;;;;2.72;2.28;;;13.30;99.90;;;;;;5035354;28;20567;-86
2023/09/02 02:29:29;;;;;;;6.15;2.38;;;13.40;99.90;;;;;;5038106;28;20594;-86
2023/09/02 02:31:57;;;;;;;4.60;2.13;;;13.30;99.90;;;;;;5039813;28;20280;-86
2023/09/02 02:34:25;;;;;;;7.15;2.45;;;13.30;99.90;;;;;;5040901;28;20201;-86
2023/09/02 02:36:52;;;;;;;5.00;2.00;;;13.30;99.90;;;;;;5044853;28;20568;-86
2023/09/02 02:39:20;;;;;;;4.22;2.25;;;13.40;99.90;;;;;;5037545;28;20272;-86
2023/09/02 02:41:48;;;;;;;3.42;2.35;;;13.40;99.90;;;;;;5034814;28;20190;-86
2023/09/02 02:44:15;;;;;;;3.55;1.80;;;13.40;99.90;;;;;;5043684;28;20242;-85
2023/09/02 02:46:43;;;;;;;4.25;2.10;;;13.40;99.90;;;;;;5041741;28;20233;-86
2023/09/02 02:49:11;;;;;;;4.55;1.95;;;13.40;99.90;;;;;;5032147;28;20196;-87
2023/09/02 02:51:39;;;;;;;2.97;1.88;;;13.50;99.90;;;;;;5031329;28;20190;-86
2023/09/02 02:54:06;;;;;;;6.57;2.15;;;13.40;99.90;;;;;;5038272;28;20189;-86
2023/09/02 02:56:34;;;;;;;6.90;2.30;;;13.40;99.90;;;;;;5034778;28;20201;-86
2023/09/02 02:59:02;;;;;;;5.43;2.05;;;13.30;99.90;;;;;;5014891;28;20194;-86
2023/09/02 03:01:31;;;;;;;4.60;2.00;;;13.30;99.90;;;;;;5045329;28;20642;-85
2023/09/02 03:04:00;;;;;;;3.30;2.03;;;13.30;99.90;;;;;;5036434;28;20770;-86
2023/09/02 03:06:28;;;;;;;2.60;1.70;;;13.30;99.90;;;;;;5039148;28;20214;-85
2023/09/02 03:08:55;;;;;;;5.70;1.98;;;13.40;99.90;;;;;;5034169;28;20232;-86
2023/09/02 03:11:23;;;;;;;3.60;2.15;;;13.30;99.90;;;;;;5034596;28;20194;-86
2023/09/02 03:13:52;;;;;;;4.78;2.35;;;13.30;99.90;;;;;;5039355;27;20237;-86
2023/09/02 03:16:24;;;;;;;5.28;2.40;;;13.20;99.90;;;;;;5043683;28;20205;-86
2023/09/02 03:18:52;;;;;;;5.10;2.00;;;13.30;99.90;;;;;;5035085;28;20208;-85
2023/09/02 03:21:20;;;;;;;2.33;1.73;;;13.40;99.90;;;;;;5036230;28;20189;-86
2023/09/02 03:23:48;;;;;;;3.95;2.05;;;13.30;99.90;;;;;;5039771;27;20198;-86
2023/09/02 03:26:16;;;;;;;4.65;2.00;;;13.40;99.90;;;;;;5030651;28;20202;-85
2023/09/02 03:28:46;;;;;;;4.55;1.58;;;13.40;99.90;;;;;;5034789;28;20190;-85
2023/09/02 03:31:13;;;;;;;3.40;1.73;;;13.30;99.90;;;;;;5032570;28;20238;-86
2023/09/02 03:33:43;;;;;;;6.00;1.80;;;13.40;99.90;;;;;;5037799;28;20293;-85
2023/09/02 03:36:19;;;;;;;4.72;2.05;;;13.40;99.90;;;;;;5037086;28;20761;-84
2023/09/02 03:38:47;;;;;;;2.08;1.88;;;13.40;99.90;;;;;;5030496;28;20707;-84
2023/09/02 03:41:18;;;;;;;2.88;1.85;;;13.50;99.90;;;;;;5041602;28;20275;-86
2023/09/02 03:43:46;;;;;;;3.28;1.70;;;13.40;99.90;;;;;;5032648;28;20190;-85
2023/09/02 03:46:15;;;;;;;4.55;1.80;;;13.40;99.90;;;;;;5035196;28;20213;-85
2023/09/02 03:48:46;;;;;;;3.05;2.17;;;13.30;99.90;;;;;;5036061;28;20776;-87
2023/09/02 03:51:16;;;;;;;5.88;1.83;;;13.40;99.90;;;;;;5037610;27;20194;-85
2023/09/02 03:54:04;;;;;;;2.65;1.90;;;13.30;99.90;;;;;;5034927;28;20194;-85
2023/09/02 03:56:36;;;;;;;5.65;1.90;;;13.40;99.90;;;;;;5058041;27;20288;-85
2023/09/02 03:59:05;;;;;;;6.18;1.90;;;13.40;99.90;;;;;;5038143;28;20193;-83
2023/09/02 04:01:32;;;;;;;2.13;1.85;;;13.40;99.90;;;;;;5036939;28;20215;-85
2023/09/02 04:04:01;;;;;;;5.43;2.08;;;13.40;99.90;;;;;;5034822;28;20194;-85
2023/09/02 04:06:28;;;;;;;2.45;1.85;;;13.40;99.90;;;;;;5033099;28;20205;-84
2023/09/02 04:08:56;;;;;;;5.15;2.10;;;13.50;99.90;;;;;;5037804;28;20229;-84
2023/09/02 04:11:23;;;;;;;4.13;2.00;;;13.50;99.90;;;;;;5031435;28;20214;-84
2023/09/02 04:13:51;;;;;;;2.72;1.70;;;13.50;99.90;;;;;;5038099;28;20221;-84
2023/09/02 04:16:18;;;;;;;5.68;2.20;;;13.40;99.90;;;;;;5039176;28;20205;-84
2023/09/02 04:18:46;;;;;;;3.72;1.83;;;13.40;99.90;;;;;;5037615;28;20272;-84
2023/09/02 04:21:14;;;;;;;3.67;2.40;;;13.40;99.90;;;;;;5032643;28;20190;-84
2023/09/02 04:23:43;;;;;;;4.10;2.05;;;13.50;99.90;;;;;;5030424;28;20196;-85
2023/09/02 04:26:14;;;;;;;3.17;2.10;;;13.40;99.90;;;;;;5034265;28;20193;-85
2023/09/02 04:28:42;;;;;;;5.65;2.10;;;13.50;99.90;;;;;;5040749;28;20574;-84
2023/09/02 04:31:13;;;;;;;5.97;1.92;;;13.50;99.90;;;;;;5026602;28;20196;-85
2023/09/02 04:33:41;;;;;;;3.35;1.88;;;13.50;99.90;;;;;;5045068;28;20189;-85
2023/09/02 04:36:09;;;;;;;4.20;1.80;;;13.50;99.90;;;;;;5043881;28;20606;-83
2023/09/02 04:38:39;;;;;;;3.65;1.70;;;13.50;99.90;;;;;;5044059;28;20264;-84
2023/09/02 04:41:08;;;;;;;2.58;1.58;;;13.50;99.90;;;;;;5027701;28;20204;-83
2023/09/02 04:43:37;;;;;;;2.97;2.00;;;13.50;99.90;;;;;;5034282;28;20189;-84
2023/09/02 04:46:07;;;;;;;3.17;1.85;;;13.50;99.90;;;;;;5037288;28;20212;-84
2023/09/02 04:48:38;;;;;;;4.72;2.20;;;13.50;99.90;;;;;;5040295;28;20190;-84
2023/09/02 04:51:08;;;;;;;5.05;1.90;;;13.50;99.90;;;;;;5039638;28;20724;-84
2023/09/02 04:53:37;;;;;;;6.07;2.42;;;13.60;99.90;;;;;;5035995;28;20181;-84
2023/09/02 04:56:05;;;;;;;3.90;2.67;;;13.50;99.90;;;;;;5034309;27;20648;-84
2023/09/02 04:58:35;;;;;;;7.13;3.17;;;13.50;99.90;;;;;;5039557;28;20259;-83
2023/09/02 05:01:12;;;;;;;6.13;3.22;;;13.50;99.90;;;;;;5062895;27;20203;-85
2023/09/02 05:03:48;;;;;;;4.35;2.47;;;13.50;99.90;;;;;;5035566;28;20181;-84
2023/09/02 05:06:16;;;;;;;4.15;1.98;;;13.60;99.90;;;;;;5037933;28;20205;-84
2023/09/02 05:08:45;;;;;;;4.78;2.50;;;13.50;99.90;;;;;;5036797;28;20570;-86
2023/09/02 05:11:17;;;;;;;6.72;2.35;;;13.50;99.90;;;;;;5032426;28;20190;-84
2023/09/02 05:13:45;;;;;;;4.88;1.77;;;13.50;99.90;;;;;;5035227;28;20249;-84
2023/09/02 05:16:12;;;;;;;5.38;2.70;;;13.50;99.90;;;;;;5041983;27;20202;-83
2023/09/02 05:18:40;;;;;;;6.35;2.08;;;13.60;99.90;;;;;;5039626;28;20193;-84
2023/09/02 05:21:08;;;;;;;4.68;2.30;;;13.50;99.90;;;;;;5044795;28;20185;-84
2023/09/02 05:23:35;;;;;;;3.08;1.90;;;13.50;99.90;;;;;;5044564;28;20819;-84
2023/09/02 05:26:04;;;;;;;4.70;2.42;;;13.50;99.90;;;;;;5054660;28;20703;-84
2023/09/02 05:28:36;;;;;;;6.47;2.88;;;13.60;99.90;;;;;;5042058;28;20186;-84
2023/09/02 05:31:04;;;;;;;5.18;3.33;;;13.50;99.90;;;;;;5040526;28;20186;-84
2023/09/02 05:33:31;;;;;;;5.25;3.13;;;13.50;99.90;;;;;;5035801;28;20683;-85
2023/09/02 05:35:59;;;;;;;4.30;2.47;;;13.60;99.90;;;;;;5041872;28;20691;-84
2023/09/02 05:38:27;;;;;;;3.90;2.33;;;13.60;99.90;;;;;;5044203;28;20663;-85
2023/09/02 05:40:54;;;;;;;5.97;2.45;;;13.60;99.90;;;;;;5039452;28;21155;-83
2023/09/02 05:43:24;;;;;;;5.00;3.28;;;13.50;99.90;;;;;;5035756;28;20235;-84
2023/09/02 05:45:52;;;;;;;6.40;2.88;;;13.60;99.90;;;;;;5034895;28;20190;-84
2023/09/02 05:48:19;;;;;;;5.22;3.35;;;13.60;99.90;;;;;;5033214;28;20197;-83
2023/09/02 05:50:47;;;;;;;3.42;2.15;;;13.60;99.90;;;;;;5036257;28;20760;-83
2023/09/02 05:53:15;;;;;;;4.03;2.25;;;13.60;99.90;;;;;;5038886;28;20251;-83
2023/09/02 05:55:53;;;;;;;2.58;2.00;;;13.60;99.90;;;;;;5038982;28;20266;-85
2023/09/02 05:58:23;;;;;;;3.00;1.95;;;13.60;99.90;;;;;;5038085;28;20674;-85
2023/09/02 06:00:51;;;;;;;6.07;2.10;;;13.60;99.90;;;;;;5042366;28;20888;-84
2023/09/02 06:03:18;;;;;;;6.10;2.10;;;13.70;99.90;;;;;;5031391;28;20262;-84
2023/09/02 06:05:47;;;;;;;3.80;2.10;;;13.60;99.90;;;;;;5034218;28;20277;-85
2023/09/02 06:08:15;;;;;;;4.72;2.00;;;13.60;99.90;;;;;;5037916;28;20194;-84
2023/09/02 06:10:42;;;;;;;7.35;2.67;;;13.60;99.90;;;;;;5039926;28;20186;-84
2023/09/02 06:13:10;;;;;;;4.07;2.00;;;13.60;99.90;;;;;;5041001;28;20308;-84
2023/09/02 06:15:41;;;;;;;3.80;2.15;;;13.60;99.90;;;;;;5034858;28;20658;-84
2023/09/02 06:18:08;;;;;;;3.88;1.83;;;13.60;99.90;;;;;;5039074;28;20213;-85
2023/09/02 06:20:36;;;;;;;4.32;2.22;;;13.60;99.90;;;;;;5040303;28;20190;-87
2023/09/02 06:23:04;;;;;;;4.63;2.97;;;13.60;99.90;;;;;;5039308;28;20185;-84
2023/09/02 06:25:32;;;;;;;4.05;3.05;;;13.60;99.90;;;;;;5027639;28;20186;-83
2023/09/02 06:28:00;;;;;;;9.02;3.38;;;13.60;99.90;;;;;;5027595;28;20213;-84
2023/09/02 06:30:27;;;;;;;4.50;2.95;;;13.60;99.90;;;;;;5035003;28;20205;-84
2023/09/02 06:32:55;;;;;;;7.40;3.38;;;13.60;99.90;;;;;;5038619;28;20197;-84
2023/09/02 06:35:22;;;;;;;7.72;4.40;;;13.60;99.90;;;;;;5039812;28;20214;-84
2023/09/02 06:37:50;;;;;;;12.13;4.93;;;13.60;99.90;;;;;;5037786;28;20221;-85
2023/09/02 06:40:18;;;;;;;10.45;4.63;;;13.60;99.90;;;;;;5037176;28;20220;-84
2023/09/02 06:42:45;;;;;;;9.60;5.60;;;13.70;99.90;;;;;;5040724;28;20194;-84
2023/09/02 06:45:12;;;;;;;12.43;5.75;;;13.70;99.90;;;;;;5033861;28;20194;-83
2023/09/02 06:47:40;;;;;;;10.52;5.13;;;13.60;99.90;;;;;;5037695;28;20214;-83
2023/09/02 06:50:08;;;;;;;11.43;5.20;;;13.60;99.90;;;;;;5038065;28;20177;-84
2023/09/02 06:52:35;;;;;;;11.23;4.97;;;13.60;99.90;;;;;;5035846;28;20185;-84
2023/09/02 06:55:04;;;;;;;6.30;3.20;;;13.60;99.90;;;;;;5038623;28;20280;-85
2023/09/02 06:57:31;;;;;;;6.70;2.97;;;13.60;99.90;;;;;;5035204;28;20190;-84
2023/09/02 06:59:59;;;;;;;4.28;2.40;;;13.60;99.90;;;;;;5029124;28;20628;-84
2023/09/02 07:02:26;;;;;;;8.90;2.53;;;13.60;99.90;;;;;;5039333;28;20186;-83
2023/09/02 07:04:53;;;;;;;4.00;2.25;;;13.60;99.90;;;;;;5036083;28;20285;-83
2023/09/02 07:07:21;;;;;;;3.63;2.28;;;13.60;99.90;;;;;;5033022;28;20296;-84
2023/09/02 07:09:48;;;;;;;4.50;2.15;;;13.60;99.90;;;;;;5037445;28;20212;-84
2023/09/02 07:12:16;;;;;;;3.47;2.30;;;13.60;99.90;;;;;;5036627;28;20186;-85
2023/09/02 07:14:43;;;;;;;5.88;2.38;;;13.70;99.90;;;;;;5037291;28;20186;-84
2023/09/02 07:17:11;;;;;;;3.28;2.28;;;13.70;99.90;;;;;;5037632;28;20201;-84
2023/09/02 07:19:38;;;;;;;4.65;2.42;;;13.70;99.90;;;;;;5036832;28;20201;-85
2023/09/02 07:22:06;;;;;;;3.40;2.40;;;13.80;99.90;;;;;;5036163;28;20695;-84
2023/09/02 07:24:33;;;;;;;4.20;2.35;;;13.80;99.90;;;;;;5030992;28;20732;-85
2023/09/02 07:27:01;;;;;;;5.28;2.40;;;13.80;99.90;;;;;;5038199;28;20835;-85
2023/09/02 07:29:29;;;;;;;5.32;2.45;;;13.80;99.90;;;;;;5040876;28;20193;-85
2023/09/02 07:31:56;;;;;;;3.55;2.10;;;13.80;99.90;;;;;;5035047;28;20204;-84
2023/09/02 07:34:24;;;;;;;4.82;2.22;;;13.90;99.90;;;;;;5041261;28;20560;-84
2023/09/02 07:36:51;;;;;;;5.45;1.92;;;13.90;99.90;;;;;;5040314;27;20189;-85
2023/09/02 07:39:19;;;;;;;2.72;2.10;;;13.90;99.90;;;;;;5033760;28;20186;-85
2023/09/02 07:41:48;;;;;;;3.90;2.15;;;13.90;99.90;;;;;;5037060;28;20697;-84
2023/09/02 07:44:16;;;;;;;3.53;1.80;;;14.00;99.90;;;;;;5034799;28;20193;-84
2023/09/02 07:46:43;;;;;;;4.68;2.08;;;14.00;99.90;;;;;;5043371;28;20727;-85
2023/09/02 07:49:11;;;;;;;4.20;2.20;;;14.00;99.90;;;;;;5029425;28;20275;-84
2023/09/02 07:51:39;;;;;;;3.28;2.15;;;14.00;99.90;;;;;;5028456;28;20186;-84
2023/09/02 07:54:08;;;;;;;5.18;2.10;;;14.00;99.90;;;;;;5042304;28;20351;-84
2023/09/02 07:56:36;;;;;;;3.35;2.10;;;14.10;99.90;;;;;;5029299;28;20194;-85
2023/09/02 07:59:06;;;;;;;3.50;1.92;;;14.10;99.90;;;;;;5031985;28;20258;-84
2023/09/02 08:01:33;;;;;;;3.63;2.22;;;14.10;99.90;;;;;;5036073;28;20220;-84
2023/09/02 08:04:04;;;;;;;3.08;1.67;;;14.10;99.90;;;;;;5026928;28;20185;-85
2023/09/02 08:06:32;;;;;;;3.10;1.90;;;14.10;99.90;;;;;;5031905;28;20193;-84
2023/09/02 08:09:00;;;;;;;2.92;1.92;;;14.20;99.90;;;;;;5032262;28;20536;-85
2023/09/02 08:11:28;;;;;;;1.92;1.52;;;14.20;99.90;;;;;;5033176;28;20234;-85
2023/09/02 08:13:55;;;;;;;3.13;1.98;;;14.30;99.90;;;;;;5037732;28;20229;-84
2023/09/02 08:16:23;;;;;;;4.95;1.83;;;14.30;99.90;;;;;;5036354;28;20185;-85
2023/09/02 08:18:51;;;;;;;3.22;1.83;;;14.30;99.90;;;;;;5035757;28;20198;-84
2023/09/02 08:21:20;;;;;;;5.00;2.08;;;14.30;99.90;;;;;;5034697;28;20647;-85
2023/09/02 08:23:49;;;;;;;3.25;1.92;;;14.30;99.90;;;;;;5032593;28;20268;-85
2023/09/02 08:26:17;;;;;;;7.22;1.83;;;14.40;99.90;;;;;;5036333;27;20188;-84
2023/09/02 08:28:44;;;;;;;2.78;1.73;;;14.40;99.90;;;;;;5037070;28;20194;-84
2023/09/02 08:31:18;;;;;;;2.70;1.60;;;14.50;99.90;;;;;;5036139;28;20193;-85
2023/09/02 08:33:45;;;;;;;3.38;1.50;;;14.50;99.90;;;;;;5034224;28;20186;-84
2023/09/02 08:36:17;;;;;;;5.32;2.05;;;14.60;99.90;;;;;;5030187;28;20189;-85
2023/09/02 08:38:45;;;;;;;3.10;1.65;;;14.60;99.90;;;;;;5048719;28;20251;-86
2023/09/02 08:41:26;;;;;;;4.03;1.73;;;14.70;99.90;;;;;;5039383;28;20190;-84
2023/09/02 08:43:57;;;;;;;2.92;1.67;;;14.70;99.90;;;;;;5034436;28;20230;-84
2023/09/02 08:46:27;;;;;;;3.17;1.73;;;14.70;99.90;;;;;;5033862;28;20196;-84
2023/09/02 08:48:56;;;;;;;3.90;1.90;;;14.70;99.90;;;;;;5034653;28;20212;-84
2023/09/02 08:51:28;;;;;;;2.55;1.40;;;14.70;99.90;;;;;;5035891;27;20186;-84
2023/09/02 08:53:57;;;;;;;4.13;1.73;;;14.70;99.90;;;;;;5033818;28;20185;-83
2023/09/02 08:56:25;;;;;;;1.63;1.27;;;14.80;99.90;;;;;;5038233;28;20193;-85
2023/09/02 08:58:54;;;;;;;2.83;1.42;;;14.80;99.90;;;;;;5038160;28;20189;-83
2023/09/02 09:01:23;;;;;;;1.60;1.38;;;14.80;99.90;;;;;;5036185;28;20210;-83
2023/09/02 09:03:56;;;;;;;2.10;1.50;;;14.80;99.90;;;;;;5035208;28;20201;-83
2023/09/02 09:06:25;;;;;;;3.17;1.52;;;14.80;99.90;;;;;;5033966;28;20185;-84
2023/09/02 09:08:54;;;;;;;7.00;1.70;;;14.80;99.90;;;;;;5036015;28;20559;-83
2023/09/02 09:11:23;;;;;;;3.15;1.33;;;14.80;99.90;;;;;;5035319;28;20194;-83
2023/09/02 09:13:53;;;;;;;2.03;1.30;;;14.80;99.90;;;;;;5034691;28;20229;-84
2023/09/02 09:16:24;;;;;;;1.92;1.30;;;14.90;99.90;;;;;;5036307;27;20652;-84
2023/09/02 09:18:52;;;;;;;5.82;1.70;;;14.90;99.90;;;;;;5043639;28;20190;-84
2023/09/02 09:21:20;;;;;;;2.15;1.33;;;15.00;99.90;;;;;;5035387;27;20644;-83
2023/09/02 09:23:47;;;;;;;2.67;1.30;;;15.00;99.90;;;;;;5038966;28;20539;-83
2023/09/02 09:26:18;;;;;;;2.55;1.20;;;15.10;99.90;;;;;;5032850;28;20194;-84
2023/09/02 09:28:53;;;;;;;4.72;1.70;;;15.30;99.90;;;;;;5030984;28;20300;-83
2023/09/02 09:31:21;;;;;;;3.50;1.30;;;15.60;99.90;;;;;;5038604;28;20185;-84
2023/09/02 09:33:49;;;;;;;4.13;1.38;;;15.80;99.90;;;;;;5040779;28;20375;-83
2023/09/02 09:36:20;;;;;;;4.05;1.55;;;15.80;99.90;;;;;;5034570;28;20182;-83
2023/09/02 09:38:53;;;;;;;3.72;1.42;;;15.90;99.90;;;;;;5039894;28;20208;-83
2023/09/02 09:41:23;;;;;;;2.40;1.30;;;15.80;99.90;;;;;;5038020;28;20432;-83
2023/09/02 09:44:17;;;;;;;4.78;1.38;;;15.70;99.90;;;;;;5038260;28;20196;-83
2023/09/02 09:46:49;;;;;;;3.05;1.20;;;15.60;99.90;;;;;;5040816;28;20185;-83
2023/09/02 09:49:29;;;;;;;3.38;1.30;;;15.50;99.90;;;;;;5044520;28;20254;-83
2023/09/02 09:52:02;;;;;;;2.55;1.50;;;15.40;99.90;;;;;;5034826;28;20197;-84
2023/09/02 09:54:42;;;;;;;2.90;1.00;;;15.40;99.90;;;;;;5038037;28;20185;-84
2023/09/02 09:57:14;;;;;;;1.98;1.33;;;15.40;99.90;;;;;;5042778;28;20194;-84
2023/09/02 09:59:52;;;;;;;1.75;1.20;;;15.40;99.90;;;;;;5043964;27;20280;-83
2023/09/02 10:02:21;;;;;;;4.35;1.70;;;15.40;99.90;;;;;;5040663;27;20189;-84
2023/09/02 10:04:54;;;;;;;3.08;1.10;;;15.50;99.90;;;;;;5032215;28;20787;-84
2023/09/02 10:07:26;;;;;;;2.72;1.30;;;15.60;99.90;;;;;;5036959;28;20278;-84
2023/09/02 10:09:56;;;;;;;1.80;1.30;;;15.70;99.90;;;;;;5032999;28;20186;-84
2023/09/02 10:12:23;;;;;;;2.55;1.10;;;15.70;99.90;;;;;;5036818;28;20226;-83
2023/09/02 10:14:51;;;;;;;1.65;1.00;;;15.70;99.90;;;;;;5033531;28;20185;-83
2023/09/02 10:17:19;;;;;;;2.30;1.35;;;15.70;99.90;;;;;;5038425;28;20190;-83
2023/09/02 10:19:47;;;;;;;3.60;1.20;;;15.70;99.90;;;;;;5037760;28;20196;-83
2023/09/02 10:22:19;;;;;;;1.92;1.05;;;15.70;99.90;;;;;;5042321;28;20214;-84
2023/09/02 10:24:58;;;;;;;2.20;1.48;;;15.70;99.90;;;;;;5034087;28;20660;-84
2023/09/02 10:27:31;;;;;;;1.88;1.08;;;15.60;99.90;;;;;;5031829;28;20205;-83
2023/09/02 10:30:01;;;;;;;1.77;1.30;;;15.60;99.90;;;;;;5033940;28;20194;-84
2023/09/02 10:32:48;;;;;;;2.22;1.30;;;15.50;99.90;;;;;;5031236;28;20799;-83
2023/09/02 10:35:22;;;;;;;3.15;1.45;;;15.50;99.90;;;;;;5034293;28;20193;-83
2023/09/02 10:37:57;;;;;;;4.57;1.33;;;15.40;99.90;;;;;;5034246;28;20215;-84
2023/09/02 10:40:27;;;;;;;2.55;1.30;;;15.50;99.90;;;;;;5032544;28;20190;-83
2023/09/02 10:42:55;;;;;;;2.50;1.38;;;15.40;99.90;;;;;;5048725;28;20190;-83
2023/09/02 10:45:23;;;;;;;2.50;1.60;;;15.40;99.90;;;;;;5041506;28;20192;-81
2023/09/02 10:47:50;;;;;;;2.92;1.50;;;15.30;99.90;;;;;;5033505;28;20209;-83
2023/09/02 10:50:21;;;;;;;2.85;1.35;;;15.40;99.90;;;;;;5029041;28;20190;-85
2023/09/02 10:52:53;;;;;;;3.00;1.50;;;15.40;99.90;;;;;;5032673;28;20268;-84
2023/09/02 10:56:00;;;;;;;1.20;0.98;;;15.40;99.90;;;;;;5041224;28;20193;-84
2023/09/02 10:58:46;;;;;;;4.50;1.20;;;15.40;99.90;;;;;;5043062;28;20232;-84
2023/09/02 11:01:14;;;;;;;2.97;1.20;;;15.40;99.90;;;;;;5038844;28;20189;-84
2023/09/02 11:03:47;;;;;;;2.15;1.20;;;15.40;99.90;;;;;;5036296;28;20191;-85
2023/09/02 11:06:16;;;;;;;4.55;1.50;;;15.70;99.90;;;;;;5035803;28;20190;-85
2023/09/02 11:08:52;;;;;;;1.98;1.20;;;16.10;99.90;;;;;;5035969;28;20237;-85
2023/09/02 11:11:20;;;;;;;3.83;1.73;;;16.30;99.90;;;;;;5035546;28;20197;-85
2023/09/02 11:14:06;;;;;;;3.17;1.20;;;16.50;99.90;;;;;;5035955;28;20698;-85
2023/09/02 11:16:35;;;;;;;2.72;1.40;;;16.60;99.90;;;;;;5039700;28;20314;-84
2023/09/02 11:19:08;;;;;;;2.80;1.30;;;16.50;99.90;;;;;;5037381;28;20261;-84
2023/09/02 11:21:46;;;;;;;1.48;1.20;;;16.30;99.90;;;;;;5032990;28;20194;-85
2023/09/02 11:24:17;;;;;;;3.90;1.23;;;16.30;99.90;;;;;;5037464;28;20212;-85
2023/09/02 11:26:58;;;;;;;2.65;1.20;;;16.20;99.90;;;;;;5035110;28;20195;-85
2023/09/02 11:29:27;;;;;;;1.60;1.45;;;16.20;99.90;;;;;;5037325;28;20239;-85
2023/09/02 11:32:05;;;;;;;2.20;1.20;;;16.30;99.90;;;;;;5030444;28;20194;-84
2023/09/02 11:34:49;;;;;;;2.30;1.20;;;16.50;99.90;;;;;;5038825;28;20214;-86
2023/09/02 11:37:30;;;;;;;3.08;1.10;;;16.80;99.90;;;;;;5039938;28;20613;-86
2023/09/02 11:40:14;;;;;;;3.28;1.00;;;17.10;99.90;;;;;;5034425;28;20196;-85
2023/09/02 11:42:59;;;;;;;1.10;0.95;;;17.20;99.90;;;;;;5029547;28;20253;-84
2023/09/02 11:45:38;;;;;;;1.15;0.90;;;17.10;99.90;;;;;;5038164;28;20177;-85
2023/09/02 11:48:06;;;;;;;1.23;0.95;;;16.90;99.90;;;;;;5026624;28;20886;-84
2023/09/02 11:50:38;;;;;;;2.45;1.00;;;16.70;99.90;;;;;;5028594;28;20656;-85
2023/09/02 11:53:06;;;;;;;2.65;1.00;;;16.60;99.90;;;;;;5040088;28;20230;-84
2023/09/02 11:55:36;;;;;;;2.45;1.02;;;16.50;99.90;;;;;;5033434;28;20178;-85
2023/09/02 11:58:10;;;;;;;1.23;0.82;;;16.40;99.90;;;;;;5035780;28;20238;-84
2023/09/02 12:00:44;;;;;;;1.25;0.85;;;16.30;99.90;;;;;;5035927;28;20191;-84
2023/09/02 12:03:29;;;;;;;2.53;1.05;;;16.30;99.90;;;;;;5028751;28;20195;-84
2023/09/02 12:05:59;;;;;;;1.55;1.02;;;16.20;99.90;;;;;;5035534;28;20185;-84
2023/09/02 12:08:31;;;;;;;4.22;1.08;;;16.10;99.90;;;;;;5035693;28;20221;-85
2023/09/02 12:11:05;;;;;;;1.77;1.15;;;16.10;99.90;;;;;;5032363;28;20211;-84
2023/09/02 12:13:33;;;;;;;2.65;1.20;;;16.20;99.90;;;;;;5038885;28;20233;-85
2023/09/02 12:16:01;;;;;;;1.88;1.20;;;16.50;99.90;;;;;;5036032;28;20189;-84
2023/09/02 12:18:29;;;;;;;2.88;1.30;;;16.50;99.90;;;;;;5037172;28;20198;-84
2023/09/02 12:20:58;;;;;;;1.92;1.08;;;16.70;99.90;;;;;;5036404;28;20735;-86
2023/09/02 12:23:25;;;;;;;2.22;1.25;;;16.70;99.90;;;;;;5037694;27;20194;-85
2023/09/02 12:26:09;;;;;;;3.33;1.05;;;16.90;99.90;;;;;;5032276;28;20197;-85
2023/09/02 12:28:46;;;;;;;2.13;1.10;;;17.20;99.90;;;;;;5038900;28;20698;-85
2023/09/02 12:31:17;;;;;;;1.88;1.10;;;17.50;99.90;;;;;;5031663;28;20181;-84
2023/09/02 12:33:50;;;;;;;2.53;1.23;;;17.50;99.90;;;;;;5031980;28;20182;-85
2023/09/02 12:36:19;;;;;;;1.65;1.13;;;17.30;99.90;;;;;;5050192;28;20185;-85
2023/09/02 12:38:52;;;;;;;2.88;1.30;;;17.30;99.90;;;;;;5038303;28;20205;-84
2023/09/02 12:41:22;;;;;;;4.07;1.20;;;17.20;99.90;;;;;;5032005;28;20194;-84
2023/09/02 12:43:51;;;;;;;3.75;1.30;;;17.00;99.90;;;;;;5027139;28;20194;-84
2023/09/02 12:46:21;;;;;;;4.25;1.30;;;16.80;99.90;;;;;;5039094;28;20190;-85
2023/09/02 12:48:53;;;;;;;3.67;1.50;;;16.70;99.90;;;;;;5035621;28;20220;-83
2023/09/02 12:51:32;;;;;;;5.90;1.20;;;16.70;99.90;;;;;;5033635;28;20651;-84
2023/09/02 12:54:10;;;;;;;2.42;1.10;;;16.80;99.90;;;;;;5039778;28;20220;-84
2023/09/02 12:56:40;;;;;;;4.13;1.45;;;16.70;99.90;;;;;;5039866;28;20190;-83
2023/09/02 12:59:09;;;;;;;1.80;1.20;;;16.60;99.90;;;;;;5039293;28;20224;-83
2023/09/02 13:01:39;;;;;;;3.28;1.20;;;16.60;99.90;;;;;;5035473;28;20190;-85